sensor_id;sensor_type;location;lat;lon;timestamp;P1;durP1;ratioP1;P2;durP2;ratioP2
75758;SDS011;64371;47.566;19.086;2023-07-28T00:01:45;2.55;;;1.30;;
75758;SDS011;64371;47.566;19.086;2023-07-28T00:04:47;1.58;;;1.20;;
75758;SDS011;64371;47.566;19.086;2023-07-28T00:07:50;1.60;;;1.15;;
75758;SDS011;64371;47.566;19.086;2023-07-28T00:10:52;2.05;;;1.00;;
75758;SDS011;64371;47.566;19.086;2023-07-28T00:13:55;1.60;;;1.07;;
75758;SDS011;64371;47.566;19.086;2023-07-28T00:16:57;1.65;;;1.13;;
75758;SDS011;64371;47.566;19.086;2023-07-28T00:20:00;2.50;;;1.20;;
75758;SDS011;64371;47.566;19.086;2023-07-28T00:23:02;1.77;;;1.23;;
75758;SDS011;64371;47.566;19.086;2023-07-28T00:26:05;2.03;;;1.40;;
75758;SDS011;64371;47.566;19.086;2023-07-28T00:29:08;4.13;;;1.70;;
75758;SDS011;64371;47.566;19.086;2023-07-28T00:32:10;4.38;;;1.70;;
75758;SDS011;64371;47.566;19.086;2023-07-28T00:35:13;2.88;;;1.63;;
75758;SDS011;64371;47.566;19.086;2023-07-28T00:38:15;3.22;;;1.98;;
75758;SDS011;64371;47.566;19.086;2023-07-28T00:41:17;4.95;;;1.85;;
75758;SDS011;64371;47.566;19.086;2023-07-28T00:44:20;4.83;;;2.10;;
75758;SDS011;64371;47.566;19.086;2023-07-28T00:47:22;4.07;;;1.95;;
75758;SDS011;64371;47.566;19.086;2023-07-28T00:50:25;2.63;;;1.70;;
75758;SDS011;64371;47.566;19.086;2023-07-28T00:53:28;2.60;;;1.60;;
75758;SDS011;64371;47.566;19.086;2023-07-28T00:56:31;2.70;;;1.80;;
75758;SDS011;64371;47.566;19.086;2023-07-28T00:59:35;2.90;;;1.80;;
75758;SDS011;64371;47.566;19.086;2023-07-28T01:02:38;2.28;;;1.50;;
75758;SDS011;64371;47.566;19.086;2023-07-28T01:06:06;3.20;;;1.80;;
75758;SDS011;64371;47.566;19.086;2023-07-28T01:09:18;2.53;;;1.50;;
75758;SDS011;64371;47.566;19.086;2023-07-28T01:12:23;3.08;;;1.70;;
75758;SDS011;64371;47.566;19.086;2023-07-28T01:15:26;2.57;;;1.67;;
75758;SDS011;64371;47.566;19.086;2023-07-28T01:18:28;3.15;;;1.70;;
75758;SDS011;64371;47.566;19.086;2023-07-28T01:21:31;2.85;;;1.90;;
75758;SDS011;64371;47.566;19.086;2023-07-28T01:24:39;1.83;;;1.42;;
75758;SDS011;64371;47.566;19.086;2023-07-28T01:27:52;2.25;;;1.50;;
75758;SDS011;64371;47.566;19.086;2023-07-28T01:30:56;2.53;;;1.50;;
75758;SDS011;64371;47.566;19.086;2023-07-28T01:33:59;1.88;;;1.50;;
75758;SDS011;64371;47.566;19.086;2023-07-28T01:37:02;3.42;;;1.70;;
75758;SDS011;64371;47.566;19.086;2023-07-28T01:40:04;3.33;;;1.50;;
75758;SDS011;64371;47.566;19.086;2023-07-28T01:43:08;2.17;;;1.60;;
75758;SDS011;64371;47.566;19.086;2023-07-28T01:46:10;3.23;;;1.80;;
75758;SDS011;64371;47.566;19.086;2023-07-28T01:49:13;5.20;;;1.80;;
75758;SDS011;64371;47.566;19.086;2023-07-28T01:52:15;2.92;;;1.80;;
75758;SDS011;64371;47.566;19.086;2023-07-28T01:55:17;4.30;;;1.58;;
75758;SDS011;64371;47.566;19.086;2023-07-28T01:58:20;3.08;;;1.90;;
75758;SDS011;64371;47.566;19.086;2023-07-28T02:01:22;3.23;;;2.03;;
75758;SDS011;64371;47.566;19.086;2023-07-28T02:04:25;2.38;;;1.52;;
75758;SDS011;64371;47.566;19.086;2023-07-28T02:07:27;3.50;;;1.88;;
75758;SDS011;64371;47.566;19.086;2023-07-28T02:10:30;2.28;;;1.67;;
75758;SDS011;64371;47.566;19.086;2023-07-28T02:13:32;2.33;;;1.42;;
75758;SDS011;64371;47.566;19.086;2023-07-28T02:16:38;2.53;;;1.70;;
75758;SDS011;64371;47.566;19.086;2023-07-28T02:19:43;3.80;;;1.90;;
75758;SDS011;64371;47.566;19.086;2023-07-28T02:22:45;3.22;;;2.00;;
75758;SDS011;64371;47.566;19.086;2023-07-28T02:25:47;3.83;;;2.00;;
75758;SDS011;64371;47.566;19.086;2023-07-28T02:28:50;2.70;;;1.70;;
75758;SDS011;64371;47.566;19.086;2023-07-28T02:31:53;3.63;;;2.00;;
75758;SDS011;64371;47.566;19.086;2023-07-28T02:34:55;4.32;;;1.90;;
75758;SDS011;64371;47.566;19.086;2023-07-28T02:37:57;3.35;;;1.70;;
75758;SDS011;64371;47.566;19.086;2023-07-28T02:41:00;2.70;;;1.80;;
75758;SDS011;64371;47.566;19.086;2023-07-28T02:44:03;3.17;;;1.98;;
75758;SDS011;64371;47.566;19.086;2023-07-28T02:47:05;4.70;;;1.80;;
75758;SDS011;64371;47.566;19.086;2023-07-28T02:50:09;3.55;;;1.77;;
75758;SDS011;64371;47.566;19.086;2023-07-28T02:53:11;4.57;;;2.13;;
75758;SDS011;64371;47.566;19.086;2023-07-28T02:56:14;2.92;;;1.70;;
75758;SDS011;64371;47.566;19.086;2023-07-28T02:59:16;3.00;;;2.10;;
75758;SDS011;64371;47.566;19.086;2023-07-28T03:02:19;2.67;;;1.73;;
75758;SDS011;64371;47.566;19.086;2023-07-28T03:05:22;5.55;;;1.88;;
75758;SDS011;64371;47.566;19.086;2023-07-28T03:08:51;2.90;;;1.92;;
75758;SDS011;64371;47.566;19.086;2023-07-28T03:12:12;5.75;;;2.13;;
75758;SDS011;64371;47.566;19.086;2023-07-28T03:15:15;4.68;;;1.83;;
75758;SDS011;64371;47.566;19.086;2023-07-28T03:18:17;3.77;;;2.00;;
75758;SDS011;64371;47.566;19.086;2023-07-28T03:21:20;4.03;;;1.92;;
75758;SDS011;64371;47.566;19.086;2023-07-28T03:24:22;5.25;;;2.10;;
75758;SDS011;64371;47.566;19.086;2023-07-28T03:27:25;3.47;;;2.00;;
75758;SDS011;64371;47.566;19.086;2023-07-28T03:30:27;5.30;;;2.25;;
75758;SDS011;64371;47.566;19.086;2023-07-28T03:33:29;3.23;;;2.03;;
75758;SDS011;64371;47.566;19.086;2023-07-28T03:36:32;4.35;;;2.30;;
75758;SDS011;64371;47.566;19.086;2023-07-28T03:39:35;4.30;;;2.17;;
75758;SDS011;64371;47.566;19.086;2023-07-28T03:42:38;4.78;;;2.47;;
75758;SDS011;64371;47.566;19.086;2023-07-28T03:45:40;5.30;;;2.55;;
75758;SDS011;64371;47.566;19.086;2023-07-28T03:48:43;3.77;;;2.10;;
75758;SDS011;64371;47.566;19.086;2023-07-28T03:51:45;3.25;;;2.30;;
75758;SDS011;64371;47.566;19.086;2023-07-28T03:54:48;5.05;;;2.28;;
75758;SDS011;64371;47.566;19.086;2023-07-28T03:57:50;5.10;;;2.30;;
75758;SDS011;64371;47.566;19.086;2023-07-28T04:00:52;4.82;;;2.78;;
75758;SDS011;64371;47.566;19.086;2023-07-28T04:03:55;4.97;;;2.00;;
75758;SDS011;64371;47.566;19.086;2023-07-28T04:06:58;6.60;;;2.90;;
75758;SDS011;64371;47.566;19.086;2023-07-28T04:10:00;5.75;;;2.75;;
75758;SDS011;64371;47.566;19.086;2023-07-28T04:13:02;6.70;;;2.83;;
75758;SDS011;64371;47.566;19.086;2023-07-28T04:16:05;5.63;;;2.33;;
75758;SDS011;64371;47.566;19.086;2023-07-28T04:19:07;3.27;;;2.30;;
75758;SDS011;64371;47.566;19.086;2023-07-28T04:22:10;5.35;;;2.67;;
75758;SDS011;64371;47.566;19.086;2023-07-28T04:25:12;5.20;;;2.47;;
75758;SDS011;64371;47.566;19.086;2023-07-28T04:28:19;5.88;;;2.20;;
75758;SDS011;64371;47.566;19.086;2023-07-28T04:31:22;4.93;;;2.05;;
75758;SDS011;64371;47.566;19.086;2023-07-28T04:34:32;4.30;;;2.17;;
75758;SDS011;64371;47.566;19.086;2023-07-28T04:37:46;3.28;;;2.25;;
75758;SDS011;64371;47.566;19.086;2023-07-28T04:40:55;3.60;;;2.20;;
75758;SDS011;64371;47.566;19.086;2023-07-28T04:44:12;2.80;;;2.05;;
75758;SDS011;64371;47.566;19.086;2023-07-28T04:47:17;2.63;;;1.70;;
75758;SDS011;64371;47.566;19.086;2023-07-28T04:50:19;3.87;;;1.83;;
75758;SDS011;64371;47.566;19.086;2023-07-28T04:53:54;3.90;;;1.60;;
75758;SDS011;64371;47.566;19.086;2023-07-28T04:57:01;3.85;;;2.92;;
75758;SDS011;64371;47.566;19.086;2023-07-28T05:00:07;3.40;;;2.00;;
75758;SDS011;64371;47.566;19.086;2023-07-28T05:03:12;5.32;;;2.10;;
75758;SDS011;64371;47.566;19.086;2023-07-28T05:06:22;5.63;;;2.43;;
75758;SDS011;64371;47.566;19.086;2023-07-28T05:09:24;5.70;;;2.20;;
75758;SDS011;64371;47.566;19.086;2023-07-28T05:12:27;5.82;;;3.05;;
75758;SDS011;64371;47.566;19.086;2023-07-28T05:15:30;6.75;;;2.30;;
75758;SDS011;64371;47.566;19.086;2023-07-28T05:18:32;7.22;;;2.70;;
75758;SDS011;64371;47.566;19.086;2023-07-28T05:21:54;7.50;;;2.60;;
75758;SDS011;64371;47.566;19.086;2023-07-28T05:25:04;3.63;;;2.60;;
75758;SDS011;64371;47.566;19.086;2023-07-28T05:28:10;6.95;;;2.40;;
75758;SDS011;64371;47.566;19.086;2023-07-28T05:31:15;4.00;;;2.35;;
75758;SDS011;64371;47.566;19.086;2023-07-28T05:34:18;3.78;;;1.83;;
75758;SDS011;64371;47.566;19.086;2023-07-28T05:37:20;2.97;;;1.73;;
75758;SDS011;64371;47.566;19.086;2023-07-28T05:40:22;2.85;;;1.80;;
75758;SDS011;64371;47.566;19.086;2023-07-28T05:43:25;3.17;;;1.80;;
75758;SDS011;64371;47.566;19.086;2023-07-28T05:46:29;6.15;;;1.60;;
75758;SDS011;64371;47.566;19.086;2023-07-28T05:49:32;5.72;;;1.90;;
75758;SDS011;64371;47.566;19.086;2023-07-28T05:52:35;3.50;;;1.47;;
75758;SDS011;64371;47.566;19.086;2023-07-28T05:55:38;4.30;;;1.42;;
75758;SDS011;64371;47.566;19.086;2023-07-28T05:58:41;5.15;;;1.30;;
75758;SDS011;64371;47.566;19.086;2023-07-28T06:01:44;3.53;;;1.20;;
75758;SDS011;64371;47.566;19.086;2023-07-28T06:05:10;5.10;;;1.60;;
75758;SDS011;64371;47.566;19.086;2023-07-28T06:08:13;3.37;;;1.67;;
75758;SDS011;64371;47.566;19.086;2023-07-28T06:11:16;3.75;;;1.20;;
75758;SDS011;64371;47.566;19.086;2023-07-28T06:14:18;3.30;;;1.92;;
75758;SDS011;64371;47.566;19.086;2023-07-28T06:17:21;1.63;;;1.48;;
75758;SDS011;64371;47.566;19.086;2023-07-28T06:20:24;2.92;;;1.40;;
75758;SDS011;64371;47.566;19.086;2023-07-28T06:23:26;3.40;;;1.93;;
75758;SDS011;64371;47.566;19.086;2023-07-28T06:26:31;5.20;;;1.90;;
75758;SDS011;64371;47.566;19.086;2023-07-28T06:29:33;5.72;;;1.70;;
75758;SDS011;64371;47.566;19.086;2023-07-28T06:32:36;8.45;;;1.75;;
75758;SDS011;64371;47.566;19.086;2023-07-28T06:35:38;1.58;;;1.45;;
75758;SDS011;64371;47.566;19.086;2023-07-28T06:38:41;4.73;;;2.07;;
75758;SDS011;64371;47.566;19.086;2023-07-28T06:41:45;2.50;;;1.77;;
75758;SDS011;64371;47.566;19.086;2023-07-28T06:44:50;6.13;;;1.95;;
75758;SDS011;64371;47.566;19.086;2023-07-28T06:47:55;8.52;;;1.73;;
75758;SDS011;64371;47.566;19.086;2023-07-28T06:50:59;4.03;;;1.90;;
75758;SDS011;64371;47.566;19.086;2023-07-28T06:54:02;2.63;;;1.60;;
75758;SDS011;64371;47.566;19.086;2023-07-28T06:57:05;3.47;;;1.65;;
75758;SDS011;64371;47.566;19.086;2023-07-28T07:00:08;4.40;;;1.60;;
75758;SDS011;64371;47.566;19.086;2023-07-28T07:03:11;1.67;;;1.20;;
75758;SDS011;64371;47.566;19.086;2023-07-28T07:06:14;10.20;;;2.00;;
75758;SDS011;64371;47.566;19.086;2023-07-28T07:09:17;2.83;;;1.23;;
75758;SDS011;64371;47.566;19.086;2023-07-28T07:12:19;3.90;;;1.52;;
75758;SDS011;64371;47.566;19.086;2023-07-28T07:15:23;2.33;;;1.25;;
75758;SDS011;64371;47.566;19.086;2023-07-28T07:18:25;2.85;;;1.63;;
75758;SDS011;64371;47.566;19.086;2023-07-28T07:21:27;1.75;;;1.25;;
75758;SDS011;64371;47.566;19.086;2023-07-28T07:24:30;1.93;;;1.00;;
75758;SDS011;64371;47.566;19.086;2023-07-28T07:27:32;4.47;;;1.30;;
75758;SDS011;64371;47.566;19.086;2023-07-28T07:30:35;3.15;;;1.52;;
75758;SDS011;64371;47.566;19.086;2023-07-28T07:33:37;3.50;;;1.80;;
75758;SDS011;64371;47.566;19.086;2023-07-28T07:36:39;5.13;;;1.95;;
75758;SDS011;64371;47.566;19.086;2023-07-28T07:39:42;2.30;;;1.10;;
75758;SDS011;64371;47.566;19.086;2023-07-28T07:42:47;3.53;;;1.40;;
75758;SDS011;64371;47.566;19.086;2023-07-28T07:45:50;2.00;;;1.80;;
75758;SDS011;64371;47.566;19.086;2023-07-28T07:48:56;3.53;;;1.63;;
75758;SDS011;64371;47.566;19.086;2023-07-28T07:51:58;2.88;;;1.90;;
75758;SDS011;64371;47.566;19.086;2023-07-28T07:55:01;6.80;;;2.20;;
75758;SDS011;64371;47.566;19.086;2023-07-28T07:58:04;2.97;;;1.45;;
75758;SDS011;64371;47.566;19.086;2023-07-28T08:01:06;4.63;;;1.85;;
75758;SDS011;64371;47.566;19.086;2023-07-28T08:04:09;5.47;;;1.75;;
75758;SDS011;64371;47.566;19.086;2023-07-28T08:07:13;2.53;;;1.17;;
75758;SDS011;64371;47.566;19.086;2023-07-28T08:10:18;2.00;;;1.40;;
75758;SDS011;64371;47.566;19.086;2023-07-28T08:13:20;2.13;;;1.48;;
75758;SDS011;64371;47.566;19.086;2023-07-28T08:16:23;1.83;;;1.08;;
75758;SDS011;64371;47.566;19.086;2023-07-28T08:19:26;2.90;;;1.73;;
75758;SDS011;64371;47.566;19.086;2023-07-28T08:22:28;1.65;;;1.50;;
75758;SDS011;64371;47.566;19.086;2023-07-28T08:25:30;4.33;;;1.60;;
75758;SDS011;64371;47.566;19.086;2023-07-28T08:28:33;1.50;;;0.98;;
75758;SDS011;64371;47.566;19.086;2023-07-28T08:31:35;3.25;;;1.60;;
75758;SDS011;64371;47.566;19.086;2023-07-28T08:34:39;2.22;;;1.23;;
75758;SDS011;64371;47.566;19.086;2023-07-28T08:37:41;3.03;;;1.75;;
75758;SDS011;64371;47.566;19.086;2023-07-28T08:40:44;1.90;;;1.40;;
75758;SDS011;64371;47.566;19.086;2023-07-28T08:43:47;5.85;;;1.58;;
75758;SDS011;64371;47.566;19.086;2023-07-28T08:46:49;8.50;;;1.90;;
75758;SDS011;64371;47.566;19.086;2023-07-28T08:49:52;5.28;;;1.98;;
75758;SDS011;64371;47.566;19.086;2023-07-28T08:52:56;6.90;;;2.50;;
75758;SDS011;64371;47.566;19.086;2023-07-28T08:55:58;1.70;;;1.47;;
75758;SDS011;64371;47.566;19.086;2023-07-28T08:59:01;5.45;;;1.60;;
75758;SDS011;64371;47.566;19.086;2023-07-28T09:02:03;3.58;;;1.50;;
75758;SDS011;64371;47.566;19.086;2023-07-28T09:05:17;4.60;;;1.83;;
75758;SDS011;64371;47.566;19.086;2023-07-28T09:08:21;3.55;;;1.67;;
75758;SDS011;64371;47.566;19.086;2023-07-28T09:11:24;3.50;;;1.43;;
75758;SDS011;64371;47.566;19.086;2023-07-28T09:14:29;3.78;;;2.10;;
75758;SDS011;64371;47.566;19.086;2023-07-28T09:17:31;4.32;;;1.92;;
75758;SDS011;64371;47.566;19.086;2023-07-28T09:20:36;4.63;;;2.08;;
75758;SDS011;64371;47.566;19.086;2023-07-28T09:23:39;12.77;;;2.40;;
75758;SDS011;64371;47.566;19.086;2023-07-28T09:26:43;3.13;;;1.50;;
75758;SDS011;64371;47.566;19.086;2023-07-28T09:29:48;1.60;;;1.50;;
75758;SDS011;64371;47.566;19.086;2023-07-28T09:32:52;1.98;;;1.60;;
75758;SDS011;64371;47.566;19.086;2023-07-28T09:35:57;8.20;;;1.88;;
75758;SDS011;64371;47.566;19.086;2023-07-28T09:39:09;4.50;;;1.80;;
75758;SDS011;64371;47.566;19.086;2023-07-28T09:42:12;3.10;;;1.80;;
75758;SDS011;64371;47.566;19.086;2023-07-28T09:45:16;4.47;;;1.20;;
75758;SDS011;64371;47.566;19.086;2023-07-28T09:48:38;4.60;;;1.98;;
75758;SDS011;64371;47.566;19.086;2023-07-28T09:51:47;7.57;;;1.80;;
75758;SDS011;64371;47.566;19.086;2023-07-28T09:54:51;13.18;;;2.58;;
75758;SDS011;64371;47.566;19.086;2023-07-28T09:58:00;18.30;;;2.20;;
75758;SDS011;64371;47.566;19.086;2023-07-28T10:01:06;8.80;;;2.20;;
75758;SDS011;64371;47.566;19.086;2023-07-28T10:04:10;3.47;;;1.92;;
75758;SDS011;64371;47.566;19.086;2023-07-28T10:07:12;4.20;;;2.08;;
75758;SDS011;64371;47.566;19.086;2023-07-28T10:10:15;1.88;;;1.70;;
75758;SDS011;64371;47.566;19.086;2023-07-28T10:13:20;6.33;;;2.10;;
75758;SDS011;64371;47.566;19.086;2023-07-28T10:16:30;8.05;;;2.13;;
75758;SDS011;64371;47.566;19.086;2023-07-28T10:19:34;2.70;;;1.42;;
75758;SDS011;64371;47.566;19.086;2023-07-28T10:22:44;3.80;;;1.88;;
75758;SDS011;64371;47.566;19.086;2023-07-28T10:25:59;2.33;;;1.90;;
75758;SDS011;64371;47.566;19.086;2023-07-28T10:29:09;4.20;;;1.90;;
75758;SDS011;64371;47.566;19.086;2023-07-28T10:32:12;5.50;;;1.77;;
75758;SDS011;64371;47.566;19.086;2023-07-28T10:35:28;2.13;;;1.50;;
75758;SDS011;64371;47.566;19.086;2023-07-28T10:38:34;2.40;;;1.27;;
75758;SDS011;64371;47.566;19.086;2023-07-28T10:41:38;4.97;;;2.08;;
75758;SDS011;64371;47.566;19.086;2023-07-28T10:44:40;3.00;;;1.60;;
75758;SDS011;64371;47.566;19.086;2023-07-28T10:47:42;4.20;;;1.55;;
75758;SDS011;64371;47.566;19.086;2023-07-28T10:50:46;2.90;;;1.98;;
75758;SDS011;64371;47.566;19.086;2023-07-28T10:53:54;2.55;;;2.35;;
75758;SDS011;64371;47.566;19.086;2023-07-28T10:57:01;3.80;;;2.00;;
75758;SDS011;64371;47.566;19.086;2023-07-28T11:00:05;4.40;;;1.90;;
75758;SDS011;64371;47.566;19.086;2023-07-28T11:03:09;4.20;;;2.00;;
75758;SDS011;64371;47.566;19.086;2023-07-28T11:06:12;9.68;;;1.92;;
75758;SDS011;64371;47.566;19.086;2023-07-28T11:09:19;3.55;;;1.73;;
75758;SDS011;64371;47.566;19.086;2023-07-28T11:12:24;3.00;;;2.08;;
75758;SDS011;64371;47.566;19.086;2023-07-28T11:15:26;3.30;;;1.80;;
75758;SDS011;64371;47.566;19.086;2023-07-28T11:18:29;2.30;;;1.40;;
75758;SDS011;64371;47.566;19.086;2023-07-28T11:21:31;6.18;;;2.92;;
75758;SDS011;64371;47.566;19.086;2023-07-28T11:24:41;7.40;;;2.10;;
75758;SDS011;64371;47.566;19.086;2023-07-28T11:27:44;5.82;;;1.67;;
75758;SDS011;64371;47.566;19.086;2023-07-28T11:30:48;3.03;;;1.73;;
75758;SDS011;64371;47.566;19.086;2023-07-28T11:33:51;3.78;;;1.70;;
75758;SDS011;64371;47.566;19.086;2023-07-28T11:36:55;2.65;;;1.88;;
75758;SDS011;64371;47.566;19.086;2023-07-28T11:39:58;1.98;;;1.38;;
75758;SDS011;64371;47.566;19.086;2023-07-28T11:43:02;8.05;;;1.60;;
75758;SDS011;64371;47.566;19.086;2023-07-28T11:46:31;2.23;;;1.70;;
75758;SDS011;64371;47.566;19.086;2023-07-28T11:49:57;2.47;;;1.65;;
75758;SDS011;64371;47.566;19.086;2023-07-28T11:53:00;3.53;;;2.13;;
75758;SDS011;64371;47.566;19.086;2023-07-28T11:56:03;5.80;;;2.40;;
75758;SDS011;64371;47.566;19.086;2023-07-28T11:59:05;3.78;;;2.28;;
75758;SDS011;64371;47.566;19.086;2023-07-28T12:02:09;5.47;;;1.60;;
75758;SDS011;64371;47.566;19.086;2023-07-28T12:05:15;2.10;;;1.90;;
75758;SDS011;64371;47.566;19.086;2023-07-28T12:08:44;2.00;;;1.60;;
75758;SDS011;64371;47.566;19.086;2023-07-28T12:11:45;2.20;;;1.48;;
75758;SDS011;64371;47.566;19.086;2023-07-28T12:14:50;4.32;;;2.17;;
75758;SDS011;64371;47.566;19.086;2023-07-28T12:18:14;1.73;;;1.53;;
75758;SDS011;64371;47.566;19.086;2023-07-28T12:21:20;2.30;;;1.48;;
75758;SDS011;64371;47.566;19.086;2023-07-28T12:24:22;3.40;;;1.98;;
75758;SDS011;64371;47.566;19.086;2023-07-28T12:27:26;2.25;;;1.65;;
75758;SDS011;64371;47.566;19.086;2023-07-28T12:30:32;2.30;;;2.05;;
75758;SDS011;64371;47.566;19.086;2023-07-28T12:33:35;2.83;;;1.50;;
75758;SDS011;64371;47.566;19.086;2023-07-28T12:36:40;3.00;;;1.95;;
75758;SDS011;64371;47.566;19.086;2023-07-28T12:39:46;1.70;;;1.60;;
75758;SDS011;64371;47.566;19.086;2023-07-28T12:42:53;2.20;;;1.77;;
75758;SDS011;64371;47.566;19.086;2023-07-28T12:45:58;3.17;;;2.08;;
75758;SDS011;64371;47.566;19.086;2023-07-28T12:49:04;1.67;;;1.40;;
75758;SDS011;64371;47.566;19.086;2023-07-28T12:52:07;2.42;;;1.25;;
75758;SDS011;64371;47.566;19.086;2023-07-28T12:55:20;2.15;;;1.95;;
75758;SDS011;64371;47.566;19.086;2023-07-28T12:58:23;3.95;;;1.50;;
75758;SDS011;64371;47.566;19.086;2023-07-28T13:01:28;2.13;;;1.80;;
75758;SDS011;64371;47.566;19.086;2023-07-28T13:04:30;2.33;;;1.57;;
75758;SDS011;64371;47.566;19.086;2023-07-28T13:07:33;2.20;;;1.77;;
75758;SDS011;64371;47.566;19.086;2023-07-28T13:10:38;3.45;;;1.88;;
75758;SDS011;64371;47.566;19.086;2023-07-28T13:13:43;1.98;;;1.52;;
75758;SDS011;64371;47.566;19.086;2023-07-28T13:16:46;3.35;;;2.10;;
75758;SDS011;64371;47.566;19.086;2023-07-28T13:19:48;3.17;;;2.13;;
75758;SDS011;64371;47.566;19.086;2023-07-28T13:22:51;3.55;;;1.63;;
75758;SDS011;64371;47.566;19.086;2023-07-28T13:25:54;2.30;;;1.88;;
75758;SDS011;64371;47.566;19.086;2023-07-28T13:28:56;4.30;;;1.85;;
75758;SDS011;64371;47.566;19.086;2023-07-28T13:32:00;3.72;;;1.95;;
75758;SDS011;64371;47.566;19.086;2023-07-28T13:35:04;2.83;;;2.00;;
75758;SDS011;64371;47.566;19.086;2023-07-28T13:38:07;5.93;;;1.95;;
75758;SDS011;64371;47.566;19.086;2023-07-28T13:41:10;2.90;;;2.13;;
75758;SDS011;64371;47.566;19.086;2023-07-28T13:44:12;2.38;;;1.75;;
75758;SDS011;64371;47.566;19.086;2023-07-28T13:47:16;2.28;;;1.90;;
75758;SDS011;64371;47.566;19.086;2023-07-28T13:50:18;3.27;;;1.70;;
75758;SDS011;64371;47.566;19.086;2023-07-28T13:53:21;2.58;;;1.48;;
75758;SDS011;64371;47.566;19.086;2023-07-28T13:56:26;3.05;;;1.73;;
75758;SDS011;64371;47.566;19.086;2023-07-28T13:59:30;3.60;;;1.90;;
75758;SDS011;64371;47.566;19.086;2023-07-28T14:02:32;3.13;;;2.00;;
75758;SDS011;64371;47.566;19.086;2023-07-28T14:05:35;3.23;;;1.80;;
75758;SDS011;64371;47.566;19.086;2023-07-28T14:08:37;1.85;;;1.48;;
75758;SDS011;64371;47.566;19.086;2023-07-28T14:11:39;1.73;;;1.50;;
75758;SDS011;64371;47.566;19.086;2023-07-28T14:14:42;2.00;;;1.60;;
75758;SDS011;64371;47.566;19.086;2023-07-28T14:17:44;2.28;;;1.70;;
75758;SDS011;64371;47.566;19.086;2023-07-28T14:20:47;4.70;;;1.80;;
75758;SDS011;64371;47.566;19.086;2023-07-28T14:23:49;1.83;;;1.45;;
75758;SDS011;64371;47.566;19.086;2023-07-28T14:26:51;4.50;;;1.85;;
75758;SDS011;64371;47.566;19.086;2023-07-28T14:29:55;3.25;;;1.75;;
75758;SDS011;64371;47.566;19.086;2023-07-28T14:32:58;5.80;;;2.45;;
75758;SDS011;64371;47.566;19.086;2023-07-28T14:36:02;1.43;;;1.30;;
75758;SDS011;64371;47.566;19.086;2023-07-28T14:39:04;2.10;;;1.30;;
75758;SDS011;64371;47.566;19.086;2023-07-28T14:42:08;1.88;;;1.48;;
75758;SDS011;64371;47.566;19.086;2023-07-28T14:45:10;3.13;;;1.88;;
75758;SDS011;64371;47.566;19.086;2023-07-28T14:48:12;2.67;;;2.22;;
75758;SDS011;64371;47.566;19.086;2023-07-28T14:51:15;3.67;;;1.80;;
75758;SDS011;64371;47.566;19.086;2023-07-28T14:54:18;1.92;;;1.38;;
75758;SDS011;64371;47.566;19.086;2023-07-28T14:57:20;3.38;;;1.55;;
75758;SDS011;64371;47.566;19.086;2023-07-28T15:00:36;2.50;;;1.42;;
75758;SDS011;64371;47.566;19.086;2023-07-28T15:03:38;3.90;;;2.13;;
75758;SDS011;64371;47.566;19.086;2023-07-28T15:06:42;4.50;;;1.60;;
75758;SDS011;64371;47.566;19.086;2023-07-28T15:09:46;2.45;;;1.55;;
75758;SDS011;64371;47.566;19.086;2023-07-28T15:12:49;4.07;;;2.00;;
75758;SDS011;64371;47.566;19.086;2023-07-28T15:15:51;4.40;;;1.90;;
75758;SDS011;64371;47.566;19.086;2023-07-28T15:18:54;3.17;;;2.00;;
75758;SDS011;64371;47.566;19.086;2023-07-28T15:21:57;2.27;;;1.80;;
75758;SDS011;64371;47.566;19.086;2023-07-28T15:25:00;2.38;;;1.98;;
75758;SDS011;64371;47.566;19.086;2023-07-28T15:28:02;3.90;;;1.95;;
75758;SDS011;64371;47.566;19.086;2023-07-28T15:31:05;2.88;;;1.60;;
75758;SDS011;64371;47.566;19.086;2023-07-28T15:34:08;2.40;;;1.80;;
75758;SDS011;64371;47.566;19.086;2023-07-28T15:37:10;3.03;;;1.53;;
75758;SDS011;64371;47.566;19.086;2023-07-28T15:40:13;3.55;;;1.52;;
75758;SDS011;64371;47.566;19.086;2023-07-28T15:43:15;2.47;;;1.55;;
75758;SDS011;64371;47.566;19.086;2023-07-28T15:46:17;3.00;;;1.60;;
75758;SDS011;64371;47.566;19.086;2023-07-28T15:49:21;1.92;;;1.70;;
75758;SDS011;64371;47.566;19.086;2023-07-28T15:52:23;1.77;;;1.00;;
75758;SDS011;64371;47.566;19.086;2023-07-28T15:55:26;3.47;;;1.70;;
75758;SDS011;64371;47.566;19.086;2023-07-28T15:58:28;2.58;;;1.85;;
75758;SDS011;64371;47.566;19.086;2023-07-28T16:01:30;2.50;;;1.85;;
75758;SDS011;64371;47.566;19.086;2023-07-28T16:04:33;3.33;;;1.83;;
75758;SDS011;64371;47.566;19.086;2023-07-28T16:07:36;2.90;;;1.93;;
75758;SDS011;64371;47.566;19.086;2023-07-28T16:10:40;3.55;;;1.73;;
75758;SDS011;64371;47.566;19.086;2023-07-28T16:13:42;2.95;;;2.13;;
75758;SDS011;64371;47.566;19.086;2023-07-28T16:16:44;4.07;;;2.00;;
75758;SDS011;64371;47.566;19.086;2023-07-28T16:19:47;8.68;;;2.40;;
75758;SDS011;64371;47.566;19.086;2023-07-28T16:22:49;7.23;;;2.53;;
75758;SDS011;64371;47.566;19.086;2023-07-28T16:25:51;12.02;;;3.55;;
75758;SDS011;64371;47.566;19.086;2023-07-28T16:28:54;6.90;;;3.20;;
75758;SDS011;64371;47.566;19.086;2023-07-28T16:31:56;5.05;;;2.08;;
75758;SDS011;64371;47.566;19.086;2023-07-28T16:35:00;5.88;;;2.40;;
75758;SDS011;64371;47.566;19.086;2023-07-28T16:38:02;5.00;;;1.80;;
75758;SDS011;64371;47.566;19.086;2023-07-28T16:41:05;5.38;;;2.45;;
75758;SDS011;64371;47.566;19.086;2023-07-28T16:44:07;5.55;;;2.47;;
75758;SDS011;64371;47.566;19.086;2023-07-28T16:47:09;4.65;;;2.55;;
75758;SDS011;64371;47.566;19.086;2023-07-28T16:50:12;2.70;;;1.70;;
75758;SDS011;64371;47.566;19.086;2023-07-28T16:53:14;4.10;;;1.73;;
75758;SDS011;64371;47.566;19.086;2023-07-28T16:56:17;5.03;;;2.00;;
75758;SDS011;64371;47.566;19.086;2023-07-28T16:59:19;3.33;;;2.25;;
75758;SDS011;64371;47.566;19.086;2023-07-28T17:02:22;4.40;;;2.80;;
75758;SDS011;64371;47.566;19.086;2023-07-28T17:05:25;5.15;;;2.22;;
75758;SDS011;64371;47.566;19.086;2023-07-28T17:08:27;4.40;;;2.60;;
75758;SDS011;64371;47.566;19.086;2023-07-28T17:11:31;3.97;;;2.30;;
75758;SDS011;64371;47.566;19.086;2023-07-28T17:14:34;4.03;;;2.33;;
75758;SDS011;64371;47.566;19.086;2023-07-28T17:17:37;4.10;;;2.30;;
75758;SDS011;64371;47.566;19.086;2023-07-28T17:20:39;2.80;;;2.10;;
75758;SDS011;64371;47.566;19.086;2023-07-28T17:23:42;3.80;;;2.30;;
75758;SDS011;64371;47.566;19.086;2023-07-28T17:26:45;4.00;;;2.22;;
75758;SDS011;64371;47.566;19.086;2023-07-28T17:29:47;5.90;;;2.22;;
75758;SDS011;64371;47.566;19.086;2023-07-28T17:32:50;4.15;;;2.70;;
75758;SDS011;64371;47.566;19.086;2023-07-28T17:35:52;4.22;;;2.55;;
75758;SDS011;64371;47.566;19.086;2023-07-28T17:38:54;3.87;;;2.60;;
75758;SDS011;64371;47.566;19.086;2023-07-28T17:41:57;3.72;;;2.22;;
75758;SDS011;64371;47.566;19.086;2023-07-28T17:45:00;5.00;;;2.30;;
75758;SDS011;64371;47.566;19.086;2023-07-28T17:48:09;7.45;;;2.60;;
75758;SDS011;64371;47.566;19.086;2023-07-28T17:51:11;3.08;;;2.50;;
75758;SDS011;64371;47.566;19.086;2023-07-28T17:54:14;3.63;;;2.77;;
75758;SDS011;64371;47.566;19.086;2023-07-28T17:57:16;5.45;;;3.00;;
75758;SDS011;64371;47.566;19.086;2023-07-28T18:00:19;4.03;;;2.83;;
75758;SDS011;64371;47.566;19.086;2023-07-28T18:03:22;3.67;;;2.65;;
75758;SDS011;64371;47.566;19.086;2023-07-28T18:06:25;5.10;;;2.97;;
75758;SDS011;64371;47.566;19.086;2023-07-28T18:09:28;4.70;;;2.80;;
75758;SDS011;64371;47.566;19.086;2023-07-28T18:12:30;6.32;;;2.88;;